Flight Track Log - Related Links

Times and Time Zones

All times are in EDT time to prevent confusion due to time zone crossing. See the EVA554 flight status page for this flight to view local times or setup timezone preferences in your user account.

Time Position Orientation Groundspeed Altitude Reporting Facility
EDT Latitude Longitude Course Direction KTS MPH feet Rate Location/Type
Thu 09:47:43 PM -30.3121 153.1198 355° North 177 204 5,500  Level Aus ATC (RADAR)
Thu 09:48:03 PM -30.2947 153.1180 355° North 181 208 6,300 1,855 Climbing Aus ATC (RADAR)
Thu 09:48:38 PM -30.2641 153.1176 359° North 184 212 7,200 1,425 Climbing Aus ATC (RADAR)
Thu 09:49:23 PM -30.2250 153.1175 360° North 185 213 8,200 1,412 Climbing Aus ATC (RADAR)
Thu 09:50:03 PM -30.1888 153.1177 360° North 191 220 9,200 1,400 Climbing Aus ATC (RADAR)
Thu 09:50:53 PM -30.1433 153.1147 357° North 193 222 10,300 1,385 Climbing Aus ATC (RADAR)
Thu 09:51:08 PM -30.1303 153.1141 358° North 191 220 10,700 1,252 Climbing Aus ATC (RADAR)
Thu 09:52:48 PM -30.0431 153.1084 357° North 190 219 12,700 1,100 Climbing Aus ATC (RADAR)
Thu 09:53:08 PM -30.0264 153.1070 356° North 183 211 12,900 840 Climbing Aus ATC (RADAR)
Thu 09:53:38 PM -29.9989 153.1061 358° North 194 223 13,400 1,029 Climbing Aus ATC (RADAR)
Thu 09:54:18 PM -29.9618 153.1047 358° North 199 229 14,100 975 Climbing Aus ATC (RADAR)
Thu 09:54:58 PM -29.9245 153.1022 357° North 200 230 14,700 1,000 Climbing Aus ATC (RADAR)
Thu 09:55:42 PM -29.8811 153.0985 356° North 205 236 15,500 1,043 Climbing Aus ATC (RADAR)
Thu 09:56:07 PM -29.8573 153.0979 359° North 205 236 15,900 835 Climbing Aus ATC (RADAR)
Thu 09:57:37 PM -29.7691 153.0932 357° North 215 247 17,100 730 Climbing Aus ATC (RADAR)
Thu 09:58:02 PM -29.7431 153.0917 357° North 221 254 17,300 831 Climbing Aus ATC (RADAR)
Thu 09:58:42 PM -29.7025 153.0893 357° North 217 250 18,000 494 Climbing Aus ATC (RADAR)
Thu 09:59:27 PM -29.6533 153.0870 358° North 238 274 18,000 -74 Level Aus ATC (RADAR)
Thu 10:00:03 PM -29.6123 153.0835 356° North 250 288 17,900 -71 Descending Aus ATC (RADAR)
Thu 10:00:52 PM -29.5574 153.0787 356° North 233 268 17,900  Level Aus ATC (RADAR)
Thu 10:01:17 PM -29.5310 153.0777 358° North 228 262 17,900 52 Level Aus ATC (RADAR)
Thu 10:02:47 PM -29.4417 153.0753 359° North 212 244 18,000 55 Climbing Aus ATC (RADAR)
Thu 10:03:07 PM -29.4215 153.0752 360° North 213 245 18,000  Level Aus ATC (RADAR)
Thu 10:03:47 PM -29.3808 153.0742 359° North 218 251 18,000  Level Aus ATC (RADAR)
Thu 10:04:32 PM -29.3353 153.0721 358° North 217 250 18,000  Level Aus ATC (RADAR)
Thu 10:05:02 PM -29.3054 153.0701 357° North 215 247 18,000  Level Aus ATC (RADAR)
Thu 10:05:56 PM -29.2491 153.0671 357° North 222 255 18,000  Level Aus ATC (RADAR)
Thu 10:06:16 PM -29.2283 153.0663 358° North 223 257 18,000  Level Aus ATC (RADAR)
Thu 10:07:46 PM -29.1369 153.0591 356° North 218 251 18,000  Level Aus ATC (RADAR)
Thu 10:08:41 PM -29.0802 153.0555 357° North 223 257 18,000  Level Aus ATC (RADAR)
Thu 10:09:01 PM -29.0593 153.0551 359° North 225 259 18,000  Level Aus ATC (RADAR)
Thu 10:09:31 PM -29.0267 153.0539 358° North 232 267 18,000  Level Aus ATC (RADAR)
Thu 10:10:36 PM -28.9588 153.0511 358° North 219 252 18,000  Level Aus ATC (RADAR)
Thu 10:11:11 PM -28.9379 153.0250 312° West 188 216 18,000  Level Aus ATC (RADAR)
Thu 10:12:46 PM -28.9877 152.9731 222° Southwest 175 201 18,000  Level Aus ATC (RADAR)
Thu 10:13:11 PM -29.0065 152.9633 205° Southwest 179 206 18,000  Level Aus ATC (RADAR)
Thu 10:13:41 PM -29.0290 152.9508 206° Southwest 180 207 18,000 -92 Level Aus ATC (RADAR)
Thu 10:14:16 PM -29.0556 152.9381 203° Southwest 177 204 17,900 -75 Descending Aus ATC (RADAR)
Thu 10:15:01 PM -29.0883 152.9218 204° Southwest 170 196 17,900  Level Aus ATC (RADAR)
Thu 10:15:35 PM -29.1133 152.9109 201° Southwest 166 191 17,900 71 Level Aus ATC (RADAR)
Thu 10:16:25 PM -29.1496 152.8969 199° South 167 192 18,000 80 Climbing Aus ATC (RADAR)
Thu 10:16:50 PM -29.1711 152.9027 167° South 177 204 18,000  Level Aus ATC (RADAR)
Thu 10:18:00 PM -29.1936 152.9910 106° East 266 306 18,000 -63 Level Aus ATC (RADAR)
Thu 10:18:25 PM -29.1762 153.0197 55° Northeast 269 310 17,900  Descending Aus ATC (RADAR)
Thu 10:19:05 PM -29.1350 153.0364 19° North 238 274 18,000 71 Climbing Aus ATC (RADAR)
Thu 10:19:50 PM -29.0870 153.0507 15° North 240 276 18,000 -71 Level Aus ATC (RADAR)
Thu 10:20:30 PM -29.0453 153.0620 13° North 230 265 17,900 -71 Descending Aus ATC (RADAR)
Thu 10:21:15 PM -28.9988 153.0681 North 225 259 17,900 86 Level Aus ATC (RADAR)
Thu 10:21:40 PM -28.9733 153.0722 North 223 257 18,000 52 Climbing Aus ATC (RADAR)
Thu 10:23:10 PM -28.8774 153.0884 North 236 272 18,000  Level Aus ATC (RADAR)
Thu 10:23:50 PM -28.8332 153.0968 North 242 278 18,000 -109 Level Aus ATC (RADAR)
Thu 10:24:05 PM -28.8168 153.1010 13° North 242 278 17,900  Descending Aus ATC (RADAR)
Thu 10:24:45 PM -28.7730 153.1099 10° North 238 274 18,000 71 Climbing Aus ATC (RADAR)
Thu 10:25:29 PM -28.7240 153.1195 10° North 238 274 18,000  Level Aus ATC (RADAR)
Thu 10:25:59 PM -28.6911 153.1249 North 240 276 18,000 -67 Level Aus ATC (RADAR)
Thu 10:26:59 PM -28.6253 153.1378 10° North 240 276 17,900 -44 Descending Aus ATC (RADAR)
Thu 10:28:14 PM -28.5435 153.1542 10° North 238 274 17,900 55 Level Aus ATC (RADAR)
Thu 10:28:49 PM -28.5057 153.1621 10° North 237 273 18,000 120 Climbing Aus ATC (RADAR)
Thu 10:29:04 PM -28.4896 153.1654 10° North 236 272 18,000  Level Aus ATC (RADAR)
Thu 10:29:44 PM -28.4459 153.1735 North 238 274 18,000  Level Aus ATC (RADAR)
Thu 10:30:39 PM -28.3857 153.1844 North 237 273 18,000 -71 Level Aus ATC (RADAR)
Thu 10:31:09 PM -28.3537 153.1915 11° North 235 270 17,900 -75 Descending Aus ATC (RADAR)
Thu 10:31:59 PM -28.3012 153.2027 11° North 229 264 17,900  Level Aus ATC (RADAR)
Thu 10:32:14 PM -28.2860 153.2059 11° North 226 260 17,900 -686 Level Aus ATC (RADAR)
Thu 10:33:09 PM -28.2300 153.2161 North 229 264 17,100 -1,137 Descending Aus ATC (RADAR)
Thu 10:33:49 PM -28.1771 153.2240 North 286 329 16,100 -1,440 Descending Aus ATC (RADAR)
Thu 10:34:24 PM -28.1257 153.2361 12° North 320 368 15,300 -1,425 Descending Aus ATC (RADAR)
Thu 10:35:09 PM -28.0615 153.2531 13° North 311 358 14,200 -1,520 Descending Aus ATC (RADAR)
Thu 10:35:39 PM -28.0218 153.2648 15° North 299 344 13,400 -1,754 Descending Aus ATC (RADAR)
Thu 10:36:14 PM -27.9753 153.2794 16° North 299 344 12,300 -1,725 Descending Aus ATC (RADAR)
Thu 10:36:59 PM -27.9151 153.2964 14° North 299 344 11,100 -1,500 Descending Aus ATC (RADAR)
Thu 10:38:18 PM -27.8132 153.2821 353° North 281 323 9,200 -1,431 Descending Aus ATC (RADAR)
Thu 10:38:48 PM -27.7776 153.2665 339° North 274 315 8,500 -1,418 Descending Aus ATC (RADAR)
Thu 10:39:13 PM -27.7499 153.2534 337° Northwest 263 303 7,900 -1,400 Descending Aus ATC (RADAR)
Thu 10:39:48 PM -27.7114 153.2352 337° Northwest 258 297 7,100 -1,425 Descending Aus ATC (RADAR)
Thu 10:40:33 PM -27.6611 153.2133 339° North 255 293 6,000 -1,425 Descending Aus ATC (RADAR)
Thu 10:41:08 PM -27.6218 153.1969 340° North 259 298 5,200 -1,341 Descending Aus ATC (RADAR)
Thu 10:41:58 PM -27.5769 153.1577 322° Northwest 239 275 4,100 -1,292 Descending Aus ATC (RADAR)
Thu 10:42:13 PM -27.5656 153.1458 317° Northwest 229 264 3,800 -1,011 Descending Aus ATC (RADAR)
Thu 10:43:33 PM -27.5147 153.0888 315° West 181 208 2,500 -857 Descending Aus ATC (RADAR)
Thu 10:43:58 PM -27.5000 153.0752 321° Northwest 169 194 2,300 -800 Descending Aus ATC (RADAR)
Thu 10:44:33 PM -27.4699 153.0803 North 182 209 1,700 -1,059 Descending Aus ATC (RADAR)
Thu 10:45:23 PM -27.4354 153.1002 27° Northeast 160 184 800 -847 Descending Aus ATC (RADAR)
Thu 10:45:58 PM -27.4161 153.1115 27° Northeast 135 155 500 -514 Descending Aus ATC (RADAR)
Thu 10:46:48 PM -27.3943 153.1229 25° Northeast 102 117 -600 Descending Aus ATC (RADAR)

Login

Don't have an account? Register now (free) for customized features, flight alerts, and more!